sensor_id;sensor_type;location;lat;lon;timestamp;temperature;humidity
14489;DHT22;7330;50.804;4.550;2022-12-24T00:01:52;12.40;99.90
14489;DHT22;7330;50.804;4.550;2022-12-24T00:06:46;12.30;99.90
14489;DHT22;7330;50.804;4.550;2022-12-24T00:09:12;12.30;99.90
14489;DHT22;7330;50.804;4.550;2022-12-24T00:11:39;12.30;99.90
14489;DHT22;7330;50.804;4.550;2022-12-24T00:14:07;12.30;99.90
14489;DHT22;7330;50.804;4.550;2022-12-24T00:16:34;12.30;99.90
14489;DHT22;7330;50.804;4.550;2022-12-24T00:19:01;12.30;99.90
14489;DHT22;7330;50.804;4.550;2022-12-24T00:21:28;12.30;99.90
14489;DHT22;7330;50.804;4.550;2022-12-24T00:23:54;12.30;99.90
14489;DHT22;7330;50.804;4.550;2022-12-24T00:28:48;12.30;99.90
14489;DHT22;7330;50.804;4.550;2022-12-24T00:31:17;12.20;99.90
14489;DHT22;7330;50.804;4.550;2022-12-24T00:33:44;12.30;99.90
14489;DHT22;7330;50.804;4.550;2022-12-24T00:36:11;12.20;99.90
14489;DHT22;7330;50.804;4.550;2022-12-24T00:38:38;12.30;99.90
14489;DHT22;7330;50.804;4.550;2022-12-24T00:41:05;12.20;99.90
14489;DHT22;7330;50.804;4.550;2022-12-24T00:43:48;12.20;99.90
14489;DHT22;7330;50.804;4.550;2022-12-24T00:46:17;12.30;99.90
14489;DHT22;7330;50.804;4.550;2022-12-24T00:48:43;12.30;99.90
14489;DHT22;7330;50.804;4.550;2022-12-24T00:51:10;12.20;99.90
14489;DHT22;7330;50.804;4.550;2022-12-24T00:56:04;12.30;99.90
14489;DHT22;7330;50.804;4.550;2022-12-24T00:58:31;12.30;99.90
14489;DHT22;7330;50.804;4.550;2022-12-24T01:00:58;12.30;99.90
14489;DHT22;7330;50.804;4.550;2022-12-24T01:03:27;12.20;99.90
14489;DHT22;7330;50.804;4.550;2022-12-24T01:05:59;12.30;99.90
14489;DHT22;7330;50.804;4.550;2022-12-24T01:08:25;12.20;99.90
14489;DHT22;7330;50.804;4.550;2022-12-24T01:13:19;12.20;99.90
14489;DHT22;7330;50.804;4.550;2022-12-24T01:18:13;12.20;99.90
14489;DHT22;7330;50.804;4.550;2022-12-24T01:20:41;12.20;99.90
14489;DHT22;7330;50.804;4.550;2022-12-24T01:23:08;12.30;99.90
14489;DHT22;7330;50.804;4.550;2022-12-24T01:25:35;12.20;99.90
14489;DHT22;7330;50.804;4.550;2022-12-24T01:28:02;12.20;99.90
14489;DHT22;7330;50.804;4.550;2022-12-24T01:30:29;12.20;99.90
14489;DHT22;7330;50.804;4.550;2022-12-24T01:32:56;12.20;99.90
14489;DHT22;7330;50.804;4.550;2022-12-24T01:35:23;12.20;99.90
14489;DHT22;7330;50.804;4.550;2022-12-24T01:40:19;12.30;99.90
14489;DHT22;7330;50.804;4.550;2022-12-24T01:45:49;12.20;99.90
14489;DHT22;7330;50.804;4.550;2022-12-24T01:48:19;12.10;99.90
14489;DHT22;7330;50.804;4.550;2022-12-24T01:50:47;12.10;99.90
14489;DHT22;7330;50.804;4.550;2022-12-24T01:53:15;12.10;99.90
14489;DHT22;7330;50.804;4.550;2022-12-24T01:55:44;12.10;99.90
14489;DHT22;7330;50.804;4.550;2022-12-24T01:58:11;12.10;99.90
14489;DHT22;7330;50.804;4.550;2022-12-24T02:00:39;12.20;99.90
14489;DHT22;7330;50.804;4.550;2022-12-24T02:03:06;12.20;99.90
14489;DHT22;7330;50.804;4.550;2022-12-24T02:05:33;12.20;99.90
14489;DHT22;7330;50.804;4.550;2022-12-24T02:08:08;12.20;99.90
14489;DHT22;7330;50.804;4.550;2022-12-24T02:13:03;12.10;99.90
14489;DHT22;7330;50.804;4.550;2022-12-24T02:15:33;12.10;99.90
14489;DHT22;7330;50.804;4.550;2022-12-24T02:18:03;12.10;99.90
14489;DHT22;7330;50.804;4.550;2022-12-24T02:20:42;12.10;99.90
14489;DHT22;7330;50.804;4.550;2022-12-24T02:26:02;12.10;99.90
14489;DHT22;7330;50.804;4.550;2022-12-24T02:28:40;12.10;99.90
14489;DHT22;7330;50.804;4.550;2022-12-24T02:31:10;12.10;99.90
14489;DHT22;7330;50.804;4.550;2022-12-24T02:33:40;12.10;99.90
14489;DHT22;7330;50.804;4.550;2022-12-24T02:36:10;12.10;99.90
14489;DHT22;7330;50.804;4.550;2022-12-24T02:38:40;12.10;99.90
14489;DHT22;7330;50.804;4.550;2022-12-24T02:41:11;12.20;99.90
14489;DHT22;7330;50.804;4.550;2022-12-24T02:46:07;12.20;99.90
14489;DHT22;7330;50.804;4.550;2022-12-24T02:48:37;12.20;99.90
14489;DHT22;7330;50.804;4.550;2022-12-24T02:51:05;12.10;99.90
14489;DHT22;7330;50.804;4.550;2022-12-24T02:53:32;12.10;99.90
14489;DHT22;7330;50.804;4.550;2022-12-24T02:56:05;12.20;99.90
14489;DHT22;7330;50.804;4.550;2022-12-24T02:58:37;12.10;99.90
14489;DHT22;7330;50.804;4.550;2022-12-24T03:01:08;12.20;99.90
14489;DHT22;7330;50.804;4.550;2022-12-24T03:03:47;12.10;99.90
14489;DHT22;7330;50.804;4.550;2022-12-24T03:06:15;12.20;99.90
14489;DHT22;7330;50.804;4.550;2022-12-24T03:08:47;12.10;99.90
14489;DHT22;7330;50.804;4.550;2022-12-24T03:13:41;12.10;99.90
14489;DHT22;7330;50.804;4.550;2022-12-24T03:16:10;12.10;99.90
14489;DHT22;7330;50.804;4.550;2022-12-24T03:21:06;12.10;99.90
14489;DHT22;7330;50.804;4.550;2022-12-24T03:23:35;12.20;99.90
14489;DHT22;7330;50.804;4.550;2022-12-24T03:28:29;12.10;99.90
14489;DHT22;7330;50.804;4.550;2022-12-24T03:30:59;12.10;99.90
14489;DHT22;7330;50.804;4.550;2022-12-24T03:35:53;12.10;99.90
14489;DHT22;7330;50.804;4.550;2022-12-24T03:38:22;12.10;99.90
14489;DHT22;7330;50.804;4.550;2022-12-24T03:40:51;12.10;99.90
14489;DHT22;7330;50.804;4.550;2022-12-24T03:43:18;12.10;99.90
14489;DHT22;7330;50.804;4.550;2022-12-24T03:45:45;12.10;99.90
14489;DHT22;7330;50.804;4.550;2022-12-24T03:48:11;12.10;99.90
14489;DHT22;7330;50.804;4.550;2022-12-24T03:50:38;12.10;99.90
14489;DHT22;7330;50.804;4.550;2022-12-24T03:55:33;12.10;99.90
14489;DHT22;7330;50.804;4.550;2022-12-24T03:58:00;12.10;99.90
14489;DHT22;7330;50.804;4.550;2022-12-24T04:00:27;12.10;99.90
14489;DHT22;7330;50.804;4.550;2022-12-24T04:02:54;12.10;99.90
14489;DHT22;7330;50.804;4.550;2022-12-24T04:05:21;12.10;99.90
14489;DHT22;7330;50.804;4.550;2022-12-24T04:07:48;12.10;99.90
14489;DHT22;7330;50.804;4.550;2022-12-24T04:10:15;12.10;99.90
14489;DHT22;7330;50.804;4.550;2022-12-24T04:12:43;12.10;99.90
14489;DHT22;7330;50.804;4.550;2022-12-24T04:15:10;12.10;99.90
14489;DHT22;7330;50.804;4.550;2022-12-24T04:17:37;12.10;99.90
14489;DHT22;7330;50.804;4.550;2022-12-24T04:20:04;12.10;99.90
14489;DHT22;7330;50.804;4.550;2022-12-24T04:24:58;12.10;99.90
14489;DHT22;7330;50.804;4.550;2022-12-24T04:27:25;12.10;99.90
14489;DHT22;7330;50.804;4.550;2022-12-24T04:29:53;12.10;99.90
14489;DHT22;7330;50.804;4.550;2022-12-24T04:32:20;12.00;99.90
14489;DHT22;7330;50.804;4.550;2022-12-24T04:34:48;12.00;99.90
14489;DHT22;7330;50.804;4.550;2022-12-24T04:37:15;12.00;99.90
14489;DHT22;7330;50.804;4.550;2022-12-24T04:39:41;12.00;99.90
14489;DHT22;7330;50.804;4.550;2022-12-24T04:42:08;12.00;99.90
14489;DHT22;7330;50.804;4.550;2022-12-24T04:44:35;12.00;99.90
14489;DHT22;7330;50.804;4.550;2022-12-24T04:47:03;12.00;99.90
14489;DHT22;7330;50.804;4.550;2022-12-24T04:49:30;12.00;99.90
14489;DHT22;7330;50.804;4.550;2022-12-24T04:51:57;12.00;99.90
14489;DHT22;7330;50.804;4.550;2022-12-24T04:54:23;12.00;99.90
14489;DHT22;7330;50.804;4.550;2022-12-24T04:56:50;12.00;99.90
14489;DHT22;7330;50.804;4.550;2022-12-24T04:59:17;12.00;99.90
14489;DHT22;7330;50.804;4.550;2022-12-24T05:01:44;12.00;99.90
14489;DHT22;7330;50.804;4.550;2022-12-24T05:04:12;12.00;99.90
14489;DHT22;7330;50.804;4.550;2022-12-24T05:09:06;11.90;99.90
14489;DHT22;7330;50.804;4.550;2022-12-24T05:11:32;11.90;99.90
14489;DHT22;7330;50.804;4.550;2022-12-24T05:13:59;11.90;99.90
14489;DHT22;7330;50.804;4.550;2022-12-24T05:16:26;11.90;99.90
14489;DHT22;7330;50.804;4.550;2022-12-24T05:18:53;11.90;99.90
14489;DHT22;7330;50.804;4.550;2022-12-24T05:21:22;11.90;99.90
14489;DHT22;7330;50.804;4.550;2022-12-24T05:23:49;11.90;99.90
14489;DHT22;7330;50.804;4.550;2022-12-24T05:26:34;11.90;99.90
14489;DHT22;7330;50.804;4.550;2022-12-24T05:29:02;11.80;99.90
14489;DHT22;7330;50.804;4.550;2022-12-24T05:31:30;11.80;99.90
14489;DHT22;7330;50.804;4.550;2022-12-24T05:33:57;11.80;99.90
14489;DHT22;7330;50.804;4.550;2022-12-24T05:36:26;11.80;99.90
14489;DHT22;7330;50.804;4.550;2022-12-24T05:38:53;11.80;99.90
14489;DHT22;7330;50.804;4.550;2022-12-24T05:41:20;11.80;99.90
14489;DHT22;7330;50.804;4.550;2022-12-24T05:43:46;11.80;99.90
14489;DHT22;7330;50.804;4.550;2022-12-24T05:46:14;11.80;99.90
14489;DHT22;7330;50.804;4.550;2022-12-24T05:48:41;11.70;99.90
14489;DHT22;7330;50.804;4.550;2022-12-24T05:51:08;11.80;99.90
14489;DHT22;7330;50.804;4.550;2022-12-24T05:53:37;11.70;99.90
14489;DHT22;7330;50.804;4.550;2022-12-24T05:56:04;11.70;99.90
14489;DHT22;7330;50.804;4.550;2022-12-24T05:58:32;11.70;99.90
14489;DHT22;7330;50.804;4.550;2022-12-24T06:00:59;11.70;99.90
14489;DHT22;7330;50.804;4.550;2022-12-24T06:03:26;11.70;99.90
14489;DHT22;7330;50.804;4.550;2022-12-24T06:05:57;11.70;99.90
14489;DHT22;7330;50.804;4.550;2022-12-24T06:08:23;11.70;99.90
14489;DHT22;7330;50.804;4.550;2022-12-24T06:10:54;11.60;99.90
14489;DHT22;7330;50.804;4.550;2022-12-24T06:13:21;11.70;99.90
14489;DHT22;7330;50.804;4.550;2022-12-24T06:15:48;11.70;99.90
14489;DHT22;7330;50.804;4.550;2022-12-24T06:20:41;11.70;99.90
14489;DHT22;7330;50.804;4.550;2022-12-24T06:23:08;11.70;99.90
14489;DHT22;7330;50.804;4.550;2022-12-24T06:25:35;11.70;99.90
14489;DHT22;7330;50.804;4.550;2022-12-24T06:28:03;11.70;99.90
14489;DHT22;7330;50.804;4.550;2022-12-24T06:30:30;11.80;99.90
14489;DHT22;7330;50.804;4.550;2022-12-24T06:32:57;11.80;99.90
14489;DHT22;7330;50.804;4.550;2022-12-24T06:35:24;11.80;99.90
14489;DHT22;7330;50.804;4.550;2022-12-24T06:37:50;11.80;99.90
14489;DHT22;7330;50.804;4.550;2022-12-24T06:42:44;11.80;99.90
14489;DHT22;7330;50.804;4.550;2022-12-24T06:45:12;11.80;99.90
14489;DHT22;7330;50.804;4.550;2022-12-24T06:47:39;11.80;99.90
14489;DHT22;7330;50.804;4.550;2022-12-24T06:52:33;11.80;99.90
14489;DHT22;7330;50.804;4.550;2022-12-24T06:57:27;11.80;99.90
14489;DHT22;7330;50.804;4.550;2022-12-24T07:04:49;11.70;99.90
14489;DHT22;7330;50.804;4.550;2022-12-24T07:07:16;11.70;99.90
14489;DHT22;7330;50.804;4.550;2022-12-24T07:09:43;11.70;99.90
14489;DHT22;7330;50.804;4.550;2022-12-24T07:12:10;11.70;99.90
14489;DHT22;7330;50.804;4.550;2022-12-24T07:17:04;11.70;99.90
14489;DHT22;7330;50.804;4.550;2022-12-24T07:19:31;11.70;99.90
14489;DHT22;7330;50.804;4.550;2022-12-24T07:21:59;11.70;99.90
14489;DHT22;7330;50.804;4.550;2022-12-24T07:26:53;11.70;99.90
14489;DHT22;7330;50.804;4.550;2022-12-24T07:29:20;11.60;99.90
14489;DHT22;7330;50.804;4.550;2022-12-24T07:31:47;11.70;99.90
14489;DHT22;7330;50.804;4.550;2022-12-24T07:34:14;11.60;99.90
14489;DHT22;7330;50.804;4.550;2022-12-24T07:36:41;11.70;99.90
14489;DHT22;7330;50.804;4.550;2022-12-24T07:39:09;11.60;99.90
14489;DHT22;7330;50.804;4.550;2022-12-24T07:41:35;11.70;99.90
14489;DHT22;7330;50.804;4.550;2022-12-24T07:44:02;11.70;99.90
14489;DHT22;7330;50.804;4.550;2022-12-24T07:51:23;11.60;99.90
14489;DHT22;7330;50.804;4.550;2022-12-24T07:53:50;11.60;99.90
14489;DHT22;7330;50.804;4.550;2022-12-24T07:56:18;11.70;99.90
14489;DHT22;7330;50.804;4.550;2022-12-24T07:58:45;11.70;99.90
14489;DHT22;7330;50.804;4.550;2022-12-24T08:01:12;11.70;99.90
14489;DHT22;7330;50.804;4.550;2022-12-24T08:06:06;11.70;99.90
14489;DHT22;7330;50.804;4.550;2022-12-24T08:11:00;11.70;99.90
14489;DHT22;7330;50.804;4.550;2022-12-24T08:13:29;11.60;99.90
14489;DHT22;7330;50.804;4.550;2022-12-24T08:18:23;11.70;99.90
14489;DHT22;7330;50.804;4.550;2022-12-24T08:20:50;11.70;99.90
14489;DHT22;7330;50.804;4.550;2022-12-24T08:25:45;11.70;99.90
14489;DHT22;7330;50.804;4.550;2022-12-24T08:28:12;11.70;99.90
14489;DHT22;7330;50.804;4.550;2022-12-24T08:30:41;11.70;99.90
14489;DHT22;7330;50.804;4.550;2022-12-24T08:33:08;11.70;99.90
14489;DHT22;7330;50.804;4.550;2022-12-24T08:35:34;11.80;99.90
14489;DHT22;7330;50.804;4.550;2022-12-24T08:38:01;11.80;99.90
14489;DHT22;7330;50.804;4.550;2022-12-24T08:40:28;11.80;99.90
14489;DHT22;7330;50.804;4.550;2022-12-24T08:42:55;11.80;99.90
14489;DHT22;7330;50.804;4.550;2022-12-24T08:45:22;11.80;99.90
14489;DHT22;7330;50.804;4.550;2022-12-24T08:47:50;11.90;99.90
14489;DHT22;7330;50.804;4.550;2022-12-24T08:50:17;11.90;99.90
14489;DHT22;7330;50.804;4.550;2022-12-24T08:52:43;11.90;99.90
14489;DHT22;7330;50.804;4.550;2022-12-24T08:57:38;11.90;99.90
14489;DHT22;7330;50.804;4.550;2022-12-24T09:00:06;12.00;99.90
14489;DHT22;7330;50.804;4.550;2022-12-24T09:02:33;12.00;99.90
14489;DHT22;7330;50.804;4.550;2022-12-24T09:05:01;12.00;99.90
14489;DHT22;7330;50.804;4.550;2022-12-24T09:07:28;12.00;99.90
14489;DHT22;7330;50.804;4.550;2022-12-24T09:09:55;12.10;99.90
14489;DHT22;7330;50.804;4.550;2022-12-24T09:12:22;12.10;99.90
14489;DHT22;7330;50.804;4.550;2022-12-24T09:17:15;12.10;99.90
14489;DHT22;7330;50.804;4.550;2022-12-24T09:19:42;12.10;99.90
14489;DHT22;7330;50.804;4.550;2022-12-24T09:22:10;12.10;99.90
14489;DHT22;7330;50.804;4.550;2022-12-24T09:27:04;12.20;99.90
14489;DHT22;7330;50.804;4.550;2022-12-24T09:29:31;12.30;99.90
14489;DHT22;7330;50.804;4.550;2022-12-24T09:31:58;12.30;99.90
14489;DHT22;7330;50.804;4.550;2022-12-24T09:34:25;12.30;99.90
14489;DHT22;7330;50.804;4.550;2022-12-24T09:36:52;12.30;99.90
14489;DHT22;7330;50.804;4.550;2022-12-24T09:39:20;12.40;99.90
14489;DHT22;7330;50.804;4.550;2022-12-24T09:44:18;12.50;99.90
14489;DHT22;7330;50.804;4.550;2022-12-24T09:46:46;12.50;99.90
14489;DHT22;7330;50.804;4.550;2022-12-24T09:49:15;12.60;99.90
14489;DHT22;7330;50.804;4.550;2022-12-24T09:54:11;12.50;99.90
14489;DHT22;7330;50.804;4.550;2022-12-24T09:56:40;12.40;99.90
14489;DHT22;7330;50.804;4.550;2022-12-24T09:59:09;12.60;99.90
14489;DHT22;7330;50.804;4.550;2022-12-24T10:09:02;12.60;99.90
14489;DHT22;7330;50.804;4.550;2022-12-24T10:14:03;12.70;99.90
14489;DHT22;7330;50.804;4.550;2022-12-24T10:21:29;12.80;99.90
14489;DHT22;7330;50.804;4.550;2022-12-24T10:26:25;12.80;99.90
14489;DHT22;7330;50.804;4.550;2022-12-24T10:28:53;12.80;99.90
14489;DHT22;7330;50.804;4.550;2022-12-24T10:33:52;12.70;99.90
14489;DHT22;7330;50.804;4.550;2022-12-24T10:36:22;12.70;99.90
14489;DHT22;7330;50.804;4.550;2022-12-24T10:38:50;12.70;99.90
14489;DHT22;7330;50.804;4.550;2022-12-24T10:41:19;12.70;99.90
14489;DHT22;7330;50.804;4.550;2022-12-24T10:43:46;12.80;99.90
14489;DHT22;7330;50.804;4.550;2022-12-24T10:46:15;12.80;99.90
14489;DHT22;7330;50.804;4.550;2022-12-24T10:51:17;13.00;99.90
14489;DHT22;7330;50.804;4.550;2022-12-24T10:58:41;13.00;99.90
14489;DHT22;7330;50.804;4.550;2022-12-24T11:01:09;13.00;99.90
14489;DHT22;7330;50.804;4.550;2022-12-24T11:03:36;13.00;99.90
14489;DHT22;7330;50.804;4.550;2022-12-24T11:06:06;13.00;99.90
14489;DHT22;7330;50.804;4.550;2022-12-24T11:08:35;12.90;99.90
14489;DHT22;7330;50.804;4.550;2022-12-24T11:11:03;12.90;99.90
14489;DHT22;7330;50.804;4.550;2022-12-24T11:13:31;13.00;99.90
14489;DHT22;7330;50.804;4.550;2022-12-24T11:18:25;13.00;99.90
14489;DHT22;7330;50.804;4.550;2022-12-24T11:23:19;13.10;99.90
14489;DHT22;7330;50.804;4.550;2022-12-24T11:25:49;13.10;99.90
14489;DHT22;7330;50.804;4.550;2022-12-24T11:28:18;13.10;99.90
14489;DHT22;7330;50.804;4.550;2022-12-24T11:30:54;13.20;99.90
14489;DHT22;7330;50.804;4.550;2022-12-24T11:33:21;13.20;99.90
14489;DHT22;7330;50.804;4.550;2022-12-24T11:35:52;13.20;99.90
14489;DHT22;7330;50.804;4.550;2022-12-24T11:38:21;13.20;99.90
14489;DHT22;7330;50.804;4.550;2022-12-24T11:43:17;13.30;99.90
14489;DHT22;7330;50.804;4.550;2022-12-24T11:45:48;13.20;99.90
14489;DHT22;7330;50.804;4.550;2022-12-24T11:48:24;13.30;99.90
14489;DHT22;7330;50.804;4.550;2022-12-24T11:50:54;13.20;99.90
14489;DHT22;7330;50.804;4.550;2022-12-24T11:55:49;13.30;99.90
14489;DHT22;7330;50.804;4.550;2022-12-24T11:58:20;13.30;99.90
14489;DHT22;7330;50.804;4.550;2022-12-24T12:00:49;13.30;99.90
14489;DHT22;7330;50.804;4.550;2022-12-24T12:03:23;13.40;99.90
14489;DHT22;7330;50.804;4.550;2022-12-24T12:05:51;13.40;99.90
14489;DHT22;7330;50.804;4.550;2022-12-24T12:08:19;13.50;99.90
14489;DHT22;7330;50.804;4.550;2022-12-24T12:10:47;13.50;99.90
14489;DHT22;7330;50.804;4.550;2022-12-24T12:13:15;13.50;99.90
14489;DHT22;7330;50.804;4.550;2022-12-24T12:15:46;13.60;99.90
14489;DHT22;7330;50.804;4.550;2022-12-24T12:18:14;13.60;99.90
14489;DHT22;7330;50.804;4.550;2022-12-24T12:20:41;13.50;99.90
14489;DHT22;7330;50.804;4.550;2022-12-24T12:23:11;13.60;99.90
14489;DHT22;7330;50.804;4.550;2022-12-24T12:28:10;13.70;99.90
14489;DHT22;7330;50.804;4.550;2022-12-24T12:35:35;13.60;99.90
14489;DHT22;7330;50.804;4.550;2022-12-24T12:40:44;13.60;99.90
14489;DHT22;7330;50.804;4.550;2022-12-24T12:43:15;13.70;99.90
14489;DHT22;7330;50.804;4.550;2022-12-24T12:45:47;13.70;99.90
14489;DHT22;7330;50.804;4.550;2022-12-24T12:48:27;13.70;99.90
14489;DHT22;7330;50.804;4.550;2022-12-24T12:51:01;13.70;99.90
14489;DHT22;7330;50.804;4.550;2022-12-24T12:55:58;13.70;99.90
14489;DHT22;7330;50.804;4.550;2022-12-24T12:58:29;13.70;99.90
14489;DHT22;7330;50.804;4.550;2022-12-24T13:16:04;14.00;99.90
14489;DHT22;7330;50.804;4.550;2022-12-24T13:20:58;13.90;99.90
14489;DHT22;7330;50.804;4.550;2022-12-24T13:30:46;14.00;99.90
14489;DHT22;7330;50.804;4.550;2022-12-24T13:35:58;14.00;99.90
14489;DHT22;7330;50.804;4.550;2022-12-24T13:40:52;14.00;99.90
14489;DHT22;7330;50.804;4.550;2022-12-24T13:45:47;14.00;99.90
14489;DHT22;7330;50.804;4.550;2022-12-24T13:50:42;14.10;99.90
14489;DHT22;7330;50.804;4.550;2022-12-24T14:03:01;13.90;99.90
14489;DHT22;7330;50.804;4.550;2022-12-24T14:05:30;13.90;99.90
14489;DHT22;7330;50.804;4.550;2022-12-24T14:07:58;13.90;99.90
14489;DHT22;7330;50.804;4.550;2022-12-24T14:17:46;13.90;99.90
14489;DHT22;7330;50.804;4.550;2022-12-24T14:20:15;13.80;99.90
14489;DHT22;7330;50.804;4.550;2022-12-24T14:27:37;13.80;99.90
14489;DHT22;7330;50.804;4.550;2022-12-24T14:30:05;13.80;99.90
14489;DHT22;7330;50.804;4.550;2022-12-24T14:32:34;13.70;99.90
14489;DHT22;7330;50.804;4.550;2022-12-24T14:39:56;13.80;99.90
14489;DHT22;7330;50.804;4.550;2022-12-24T14:47:21;13.70;99.90
14489;DHT22;7330;50.804;4.550;2022-12-24T14:52:17;13.70;99.90
14489;DHT22;7330;50.804;4.550;2022-12-24T14:54:50;13.70;99.90
14489;DHT22;7330;50.804;4.550;2022-12-24T14:59:46;13.70;99.90
14489;DHT22;7330;50.804;4.550;2022-12-24T15:02:20;13.60;99.90
14489;DHT22;7330;50.804;4.550;2022-12-24T15:05:01;13.70;99.90
14489;DHT22;7330;50.804;4.550;2022-12-24T15:07:28;13.60;99.90
14489;DHT22;7330;50.804;4.550;2022-12-24T15:12:23;13.50;99.90
14489;DHT22;7330;50.804;4.550;2022-12-24T15:17:18;13.40;99.90
14489;DHT22;7330;50.804;4.550;2022-12-24T15:22:15;13.40;99.90
14489;DHT22;7330;50.804;4.550;2022-12-24T15:24:44;13.40;99.90
14489;DHT22;7330;50.804;4.550;2022-12-24T15:29:41;13.30;99.90
14489;DHT22;7330;50.804;4.550;2022-12-24T15:32:09;13.30;99.90
14489;DHT22;7330;50.804;4.550;2022-12-24T15:37:06;13.20;99.90
14489;DHT22;7330;50.804;4.550;2022-12-24T15:42:04;13.20;99.90
14489;DHT22;7330;50.804;4.550;2022-12-24T15:49:36;13.10;99.90
14489;DHT22;7330;50.804;4.550;2022-12-24T15:52:06;13.10;99.90
14489;DHT22;7330;50.804;4.550;2022-12-24T15:54:33;13.10;99.90
14489;DHT22;7330;50.804;4.550;2022-12-24T15:59:28;13.00;99.90
14489;DHT22;7330;50.804;4.550;2022-12-24T16:04:23;12.90;99.90
14489;DHT22;7330;50.804;4.550;2022-12-24T16:06:52;12.90;99.90
14489;DHT22;7330;50.804;4.550;2022-12-24T16:14:15;12.80;99.90
14489;DHT22;7330;50.804;4.550;2022-12-24T16:16:45;12.70;99.90
14489;DHT22;7330;50.804;4.550;2022-12-24T16:19:15;12.70;99.90
14489;DHT22;7330;50.804;4.550;2022-12-24T16:21:43;12.60;99.90
14489;DHT22;7330;50.804;4.550;2022-12-24T16:24:13;12.70;99.90
14489;DHT22;7330;50.804;4.550;2022-12-24T16:26:40;12.60;99.90
14489;DHT22;7330;50.804;4.550;2022-12-24T16:36:30;12.50;99.90
14489;DHT22;7330;50.804;4.550;2022-12-24T16:38:57;12.50;99.90
14489;DHT22;7330;50.804;4.550;2022-12-24T16:46:53;12.50;99.90
14489;DHT22;7330;50.804;4.550;2022-12-24T16:49:21;12.50;99.90
14489;DHT22;7330;50.804;4.550;2022-12-24T16:54:17;12.50;99.90
14489;DHT22;7330;50.804;4.550;2022-12-24T16:59:13;12.50;99.90
14489;DHT22;7330;50.804;4.550;2022-12-24T17:01:40;12.50;99.90
14489;DHT22;7330;50.804;4.550;2022-12-24T17:06:34;12.40;99.90
14489;DHT22;7330;50.804;4.550;2022-12-24T17:11:29;12.30;99.90
14489;DHT22;7330;50.804;4.550;2022-12-24T17:21:17;12.20;99.90
14489;DHT22;7330;50.804;4.550;2022-12-24T17:23:44;12.10;99.90
14489;DHT22;7330;50.804;4.550;2022-12-24T17:26:11;12.10;99.90
14489;DHT22;7330;50.804;4.550;2022-12-24T17:31:07;12.00;99.90
14489;DHT22;7330;50.804;4.550;2022-12-24T17:33:34;11.90;99.90
14489;DHT22;7330;50.804;4.550;2022-12-24T17:38:28;11.80;99.90
14489;DHT22;7330;50.804;4.550;2022-12-24T17:40:58;11.80;99.90
14489;DHT22;7330;50.804;4.550;2022-12-24T17:45:52;11.70;99.90
14489;DHT22;7330;50.804;4.550;2022-12-24T17:50:47;11.60;99.90
14489;DHT22;7330;50.804;4.550;2022-12-24T17:53:14;11.60;99.90
14489;DHT22;7330;50.804;4.550;2022-12-24T17:55:41;11.50;99.90
14489;DHT22;7330;50.804;4.550;2022-12-24T18:00:35;11.50;99.90
14489;DHT22;7330;50.804;4.550;2022-12-24T18:03:02;11.50;99.90
14489;DHT22;7330;50.804;4.550;2022-12-24T18:05:28;11.50;99.90
14489;DHT22;7330;50.804;4.550;2022-12-24T18:10:23;11.50;99.90
14489;DHT22;7330;50.804;4.550;2022-12-24T18:15:17;11.40;99.90
14489;DHT22;7330;50.804;4.550;2022-12-24T18:17:48;11.40;99.90
14489;DHT22;7330;50.804;4.550;2022-12-24T18:22:42;11.30;99.90
14489;DHT22;7330;50.804;4.550;2022-12-24T18:27:37;11.40;99.90
14489;DHT22;7330;50.804;4.550;2022-12-24T18:34:58;11.30;99.90
14489;DHT22;7330;50.804;4.550;2022-12-24T18:37:25;11.30;99.90
14489;DHT22;7330;50.804;4.550;2022-12-24T18:39:51;11.30;99.90
14489;DHT22;7330;50.804;4.550;2022-12-24T18:42:18;11.30;99.90
14489;DHT22;7330;50.804;4.550;2022-12-24T18:44:46;11.30;99.90
14489;DHT22;7330;50.804;4.550;2022-12-24T18:47:13;11.30;99.90
14489;DHT22;7330;50.804;4.550;2022-12-24T18:49:40;11.30;99.90
14489;DHT22;7330;50.804;4.550;2022-12-24T18:54:34;11.30;99.90
14489;DHT22;7330;50.804;4.550;2022-12-24T18:59:28;11.30;99.90
14489;DHT22;7330;50.804;4.550;2022-12-24T19:01:56;11.30;99.90
14489;DHT22;7330;50.804;4.550;2022-12-24T19:04:23;11.30;99.90
14489;DHT22;7330;50.804;4.550;2022-12-24T19:09:17;11.40;99.90
14489;DHT22;7330;50.804;4.550;2022-12-24T19:16:38;11.30;99.90
14489;DHT22;7330;50.804;4.550;2022-12-24T19:19:07;11.30;99.90
14489;DHT22;7330;50.804;4.550;2022-12-24T19:21:34;11.30;99.90
14489;DHT22;7330;50.804;4.550;2022-12-24T19:26:28;11.30;99.90
14489;DHT22;7330;50.804;4.550;2022-12-24T19:28:55;11.30;99.90
14489;DHT22;7330;50.804;4.550;2022-12-24T19:31:22;11.30;99.90
14489;DHT22;7330;50.804;4.550;2022-12-24T19:38:45;11.30;99.90
14489;DHT22;7330;50.804;4.550;2022-12-24T19:41:12;11.30;99.90
14489;DHT22;7330;50.804;4.550;2022-12-24T19:43:40;11.30;99.90
14489;DHT22;7330;50.804;4.550;2022-12-24T19:46:07;11.30;99.90
14489;DHT22;7330;50.804;4.550;2022-12-24T19:48:34;11.30;99.90
14489;DHT22;7330;50.804;4.550;2022-12-24T19:55:56;11.40;99.90
14489;DHT22;7330;50.804;4.550;2022-12-24T20:00:51;11.40;99.90
14489;DHT22;7330;50.804;4.550;2022-12-24T20:03:18;11.40;99.90
14489;DHT22;7330;50.804;4.550;2022-12-24T20:05:44;11.50;99.90
14489;DHT22;7330;50.804;4.550;2022-12-24T20:08:11;11.50;99.90
14489;DHT22;7330;50.804;4.550;2022-12-24T20:10:38;11.50;99.90
14489;DHT22;7330;50.804;4.550;2022-12-24T20:13:06;11.50;99.90
14489;DHT22;7330;50.804;4.550;2022-12-24T20:22:54;11.50;99.90
14489;DHT22;7330;50.804;4.550;2022-12-24T20:25:21;11.40;99.90
14489;DHT22;7330;50.804;4.550;2022-12-24T20:32:43;11.50;99.90
14489;DHT22;7330;50.804;4.550;2022-12-24T20:35:10;11.50;99.90
14489;DHT22;7330;50.804;4.550;2022-12-24T20:40:04;11.40;99.90
14489;DHT22;7330;50.804;4.550;2022-12-24T20:44:58;11.40;99.90
14489;DHT22;7330;50.804;4.550;2022-12-24T20:47:25;11.40;99.90
14489;DHT22;7330;50.804;4.550;2022-12-24T20:49:53;11.40;99.90
14489;DHT22;7330;50.804;4.550;2022-12-24T20:54:47;11.50;99.90
14489;DHT22;7330;50.804;4.550;2022-12-24T20:57:14;11.40;99.90
14489;DHT22;7330;50.804;4.550;2022-12-24T21:02:08;11.50;99.90
14489;DHT22;7330;50.804;4.550;2022-12-24T21:04:36;11.50;99.90
14489;DHT22;7330;50.804;4.550;2022-12-24T21:09:31;11.50;99.90
14489;DHT22;7330;50.804;4.550;2022-12-24T21:14:42;11.50;99.90
14489;DHT22;7330;50.804;4.550;2022-12-24T21:17:09;11.50;99.90
14489;DHT22;7330;50.804;4.550;2022-12-24T21:19:35;11.50;99.90
14489;DHT22;7330;50.804;4.550;2022-12-24T21:24:30;11.50;99.90
14489;DHT22;7330;50.804;4.550;2022-12-24T21:26:57;11.50;99.90
14489;DHT22;7330;50.804;4.550;2022-12-24T21:34:18;11.60;99.90
14489;DHT22;7330;50.804;4.550;2022-12-24T21:39:12;11.60;99.90
14489;DHT22;7330;50.804;4.550;2022-12-24T21:49:00;11.60;99.90
14489;DHT22;7330;50.804;4.550;2022-12-24T21:54:13;11.70;99.90
14489;DHT22;7330;50.804;4.550;2022-12-24T21:56:57;11.70;99.90
14489;DHT22;7330;50.804;4.550;2022-12-24T21:59:41;11.70;99.90
14489;DHT22;7330;50.804;4.550;2022-12-24T22:02:08;11.70;99.90